Time;durP1;ratioP1;P1;durP2;ratioP2;P2;SDS_P1;SDS_P2;PMS_P1;PMS_P2;Temp;Humidity;BMP_temperature;BMP_pressure;BME280_temperature;BME280_humidity;BME280_pressure;Samples;Min_cycle;Max_cycle;Signal;HPM_P1;HPM_P2
2021/07/16 00:00:53;;;;;;;;;;;;;;;22.30;57.65;102325.59;2209113;39;114599;-55
2021/07/16 00:02:25;;;;;;;;;;;;;;;22.31;57.39;102332.91;2200744;39;115834;-56
2021/07/16 00:03:57;;;;;;;;;;;;;;;22.30;57.30;102331.25;2208437;39;115652;-55
2021/07/16 00:05:32;;;;;;;;;;;;;;;22.29;57.19;102332.34;2210617;39;113983;-56
2021/07/16 00:07:04;;;;;;;;;;;;;;;22.29;57.30;102339.97;2210551;39;113855;-55
2021/07/16 00:08:36;;;;;;;;;;;;;;;22.29;57.57;102335.19;2210316;39;114260;-55
2021/07/16 00:10:09;;;;;;;;;;;;;;;22.27;57.60;102331.78;2216812;39;113768;-55
2021/07/16 00:11:41;;;;;;;;;;;;;;;22.28;57.52;102344.75;2212126;39;113924;-56
2021/07/16 00:13:13;;;;;;;;;;;;;;;22.27;57.43;102340.25;2210679;39;113841;-55
2021/07/16 00:14:45;;;;;;;;;;;;;;;22.31;57.30;102343.31;2211642;39;113817;-55
2021/07/16 00:16:17;;;;;;;;;;;;;;;22.28;57.48;102339.13;2211805;39;113745;-55
2021/07/16 00:17:49;;;;;;;;;;;;;;;22.30;57.25;102336.03;2211533;39;113854;-56
2021/07/16 00:19:21;;;;;;;;;;;;;;;22.27;57.63;102336.56;2211498;39;113851;-56
2021/07/16 00:20:53;;;;;;;;;;;;;;;22.28;57.28;102335.44;2210765;39;113836;-56
2021/07/16 00:22:26;;;;;;;;;;;;;;;22.30;57.50;102338.84;2208519;39;113673;-55
2021/07/16 00:23:58;;;;;;;;;;;;;;;22.25;57.28;102334.06;2214248;39;114014;-55
2021/07/16 00:25:30;;;;;;;;;;;;;;;22.28;57.32;102336.31;2213119;39;113855;-56
2021/07/16 00:27:04;;;;;;;;;;;;;;;22.28;56.96;102338.25;2211352;39;114853;-55
2021/07/16 00:28:36;;;;;;;;;;;;;;;22.26;57.53;102332.91;2211896;39;115771;-56
2021/07/16 00:30:09;;;;;;;;;;;;;;;22.28;57.41;102330.66;2211824;39;114004;-55
2021/07/16 00:31:41;;;;;;;;;;;;;;;22.28;57.59;102327.00;2204999;39;114687;-55
2021/07/16 00:33:13;;;;;;;;;;;;;;;22.26;57.60;102332.91;2209391;39;113872;-55
2021/07/16 00:34:45;;;;;;;;;;;;;;;22.26;57.30;102346.19;2211761;39;114834;-55
2021/07/16 00:36:19;;;;;;;;;;;;;;;22.25;57.35;102334.06;2211459;39;114976;-56
2021/07/16 00:37:51;;;;;;;;;;;;;;;22.27;57.33;102339.38;2211851;39;114884;-55
2021/07/16 00:39:23;;;;;;;;;;;;;;;22.26;57.44;102347.00;2213401;39;114843;-55
2021/07/16 00:40:55;;;;;;;;;;;;;;;22.27;57.56;102347.84;2212093;39;114944;-56
2021/07/16 00:42:27;;;;;;;;;;;;;;;22.26;57.34;102347.00;2211554;39;115290;-55
2021/07/16 00:43:59;;;;;;;;;;;;;;;22.27;57.43;102343.06;2211241;39;114783;-56
2021/07/16 00:45:31;;;;;;;;;;;;;;;22.26;57.30;102341.34;2211553;39;114893;-56
2021/07/16 00:47:04;;;;;;;;;;;;;;;22.26;57.29;102334.91;2213756;39;114875;-56
2021/07/16 00:48:36;;;;;;;;;;;;;;;22.26;57.29;102347.00;2208103;39;116024;-55
2021/07/16 00:50:10;;;;;;;;;;;;;;;22.23;57.30;102350.38;2211504;39;115279;-55
2021/07/16 00:51:42;;;;;;;;;;;;;;;22.24;57.16;102343.63;2204406;39;116589;-56
2021/07/16 00:53:16;;;;;;;;;;;;;;;22.24;57.31;102339.97;2209630;39;115455;-56
2021/07/16 00:54:48;;;;;;;;;;;;;;;22.23;57.22;102344.75;2211106;39;115506;-55
2021/07/16 00:56:20;;;;;;;;;;;;;;;22.22;57.08;102348.69;2209593;39;115226;-56
2021/07/16 00:57:53;;;;;;;;;;;;;;;22.22;57.24;102345.03;2203356;39;114685;-56
2021/07/16 00:59:26;;;;;;;;;;;;;;;22.23;57.27;102344.75;2208603;39;114543;-56
2021/07/16 01:00:58;;;;;;;;;;;;;;;22.23;57.36;102355.19;2211365;39;115511;-56
2021/07/16 01:02:31;;;;;;;;;;;;;;;22.22;57.44;102348.69;2211560;39;115992;-55
2021/07/16 01:04:03;;;;;;;;;;;;;;;22.24;57.69;102348.41;2212827;39;115533;-56
2021/07/16 01:05:35;;;;;;;;;;;;;;;22.23;57.71;102353.19;2214897;39;115601;-56
2021/07/16 01:07:08;;;;;;;;;;;;;;;22.23;57.63;102352.34;2211245;39;115852;-55
2021/07/16 01:08:40;;;;;;;;;;;;;;;22.23;57.70;102347.56;2210922;39;115586;-55
2021/07/16 01:10:12;;;;;;;;;;;;;;;22.23;57.70;102350.38;2209624;39;113965;-56
2021/07/16 01:11:44;;;;;;;;;;;;;;;22.23;57.44;102358.00;2210782;39;113777;-56
2021/07/16 01:13:16;;;;;;;;;;;;;;;22.23;57.44;102356.03;2211372;39;113751;-55
2021/07/16 01:14:49;;;;;;;;;;;;;;;22.22;57.31;102348.69;2211266;39;113847;-55
2021/07/16 01:16:22;;;;;;;;;;;;;;;22.22;57.37;102350.66;2206994;39;113750;-55
2021/07/16 01:17:55;;;;;;;;;;;;;;;22.21;57.43;102351.81;2209805;39;113653;-60
2021/07/16 01:19:33;;;;;;;;;;;;;;;22.21;57.25;102354.63;2211676;39;113571;-56
2021/07/16 01:21:05;;;;;;;;;;;;;;;22.24;57.32;102357.72;2210779;39;113845;-56
2021/07/16 01:22:39;;;;;;;;;;;;;;;22.21;57.33;102352.66;2210779;39;113723;-55
2021/07/16 01:24:11;;;;;;;;;;;;;;;22.21;57.33;102346.19;2211464;39;113859;-55
2021/07/16 01:25:43;;;;;;;;;;;;;;;22.20;57.12;102353.78;2211870;39;113973;-55
2021/07/16 01:27:17;;;;;;;;;;;;;;;22.21;57.24;102351.81;2211698;39;113740;-55
2021/07/16 01:28:50;;;;;;;;;;;;;;;22.19;57.42;102357.72;2211687;39;113901;-55
2021/07/16 01:30:23;;;;;;;;;;;;;;;22.21;57.19;102357.44;2211965;39;114246;-55
2021/07/16 01:31:56;;;;;;;;;;;;;;;22.23;57.60;102358.84;2213450;39;114307;-56
2021/07/16 01:33:29;;;;;;;;;;;;;;;22.20;57.20;102359.41;2210552;39;115151;-55
2021/07/16 01:35:00;;;;;;;;;;;;;;;22.20;57.55;102356.59;2207642;39;114804;-55
2021/07/16 01:36:32;;;;;;;;;;;;;;;22.19;57.03;102352.09;2210166;39;114971;-56
2021/07/16 01:38:04;;;;;;;;;;;;;;;22.24;57.26;102359.69;2209616;39;114465;-56
2021/07/16 01:39:36;;;;;;;;;;;;;;;22.21;57.51;102349.84;2208771;39;114779;-56
2021/07/16 01:41:08;;;;;;;;;;;;;;;22.19;57.28;102352.09;2208383;39;115286;-55
2021/07/16 01:42:41;;;;;;;;;;;;;;;22.18;57.40;102359.69;2211585;39;114811;-55
2021/07/16 01:44:14;;;;;;;;;;;;;;;22.20;57.38;102359.41;2210572;39;115458;-55
2021/07/16 01:45:46;;;;;;;;;;;;;;;22.18;57.26;102365.31;2211372;39;114834;-55
2021/07/16 01:47:18;;;;;;;;;;;;;;;22.19;57.34;102354.91;2211252;39;114233;-55
2021/07/16 01:48:50;;;;;;;;;;;;;;;22.18;57.20;102359.69;2211471;39;114818;-55
2021/07/16 01:50:22;;;;;;;;;;;;;;;22.18;57.09;102356.03;2211084;39;114839;-56
2021/07/16 01:51:54;;;;;;;;;;;;;;;22.18;57.38;102356.88;2211009;39;115120;-56
2021/07/16 01:53:27;;;;;;;;;;;;;;;22.21;57.31;102358.28;2214003;39;115384;-56
2021/07/16 01:54:59;;;;;;;;;;;;;;;22.16;57.51;102361.97;2211342;39;116272;-55
2021/07/16 01:56:31;;;;;;;;;;;;;;;22.18;57.26;102353.22;2208591;39;115505;-55
2021/07/16 01:58:05;;;;;;;;;;;;;;;22.16;57.34;102356.34;2206136;39;115548;-55
2021/07/16 01:59:37;;;;;;;;;;;;;;;22.18;57.23;102367.28;2206560;39;116536;-56
2021/07/16 02:01:14;;;;;;;;;;;;;;;22.17;57.19;102365.59;2211110;39;114728;-56
2021/07/16 02:02:47;;;;;;;;;;;;;;;22.17;57.16;102357.16;2211363;39;115577;-56
2021/07/16 02:04:19;;;;;;;;;;;;;;;22.15;57.15;102360.28;2208072;39;115551;-56
2021/07/16 02:05:51;;;;;;;;;;;;;;;22.16;57.16;102366.75;2211804;39;115460;-55
2021/07/16 02:07:23;;;;;;;;;;;;;;;22.15;57.06;102363.09;2210555;39;115563;-56
2021/07/16 02:08:55;;;;;;;;;;;;;;;22.15;57.17;102363.09;2207710;39;115231;-56
2021/07/16 02:10:28;;;;;;;;;;;;;;;22.16;57.20;102361.13;2207031;39;116385;-56
2021/07/16 02:11:59;;;;;;;;;;;;;;;22.16;57.37;102361.97;2210198;39;115526;-55
2021/07/16 02:13:31;;;;;;;;;;;;;;;22.14;57.13;102358.59;2210393;39;115532;-55
2021/07/16 02:15:06;;;;;;;;;;;;;;;22.15;57.21;102363.09;2216424;39;114585;-56
2021/07/16 02:16:38;;;;;;;;;;;;;;;22.15;56.92;102359.44;2212294;39;113847;-55
2021/07/16 02:18:10;;;;;;;;;;;;;;;22.15;57.08;102363.09;2211520;39;113735;-55
2021/07/16 02:19:42;;;;;;;;;;;;;;;22.14;57.03;102366.19;2216400;39;114112;-56
2021/07/16 02:21:14;;;;;;;;;;;;;;;22.16;57.07;102361.13;2209583;39;114156;-55
2021/07/16 02:22:46;;;;;;;;;;;;;;;22.15;56.88;102362.25;2208444;39;114682;-56
2021/07/16 02:24:18;;;;;;;;;;;;;;;22.14;56.89;102357.72;2208634;39;114087;-56
2021/07/16 02:25:50;;;;;;;;;;;;;;;22.13;57.09;102365.31;2210081;39;113901;-55
2021/07/16 02:27:22;;;;;;;;;;;;;;;22.12;56.78;102360.81;2209788;39;113864;-55
2021/07/16 02:28:54;;;;;;;;;;;;;;;22.13;57.22;102370.13;2207334;39;113609;-55
2021/07/16 02:30:26;;;;;;;;;;;;;;;22.13;56.74;102370.13;2212890;39;113989;-55
2021/07/16 02:31:58;;;;;;;;;;;;;;;22.11;56.79;102364.78;2211465;39;113794;-55
2021/07/16 02:33:31;;;;;;;;;;;;;;;22.12;56.79;102365.63;2210149;39;113870;-55
2021/07/16 02:35:04;;;;;;;;;;;;;;;22.14;57.09;102363.38;2209286;39;113705;-56
2021/07/16 02:36:36;;;;;;;;;;;;;;;22.13;56.58;102364.47;2210814;39;113821;-55
2021/07/16 02:38:08;;;;;;;;;;;;;;;22.15;57.03;102367.88;2208579;39;114774;-55
2021/07/16 02:39:40;;;;;;;;;;;;;;;22.12;56.85;102366.44;2208493;39;113976;-55
2021/07/16 02:41:12;;;;;;;;;;;;;;;22.11;56.77;102373.22;2211090;39;115204;-56
2021/07/16 02:42:44;;;;;;;;;;;;;;;22.12;56.90;102366.44;2211075;39;116323;-56
2021/07/16 02:44:16;;;;;;;;;;;;;;;22.11;56.68;102366.75;2205193;39;114871;-55
2021/07/16 02:45:48;;;;;;;;;;;;;;;22.11;56.88;102373.22;2210107;39;114998;-55
2021/07/16 02:47:20;;;;;;;;;;;;;;;22.16;56.80;102366.75;2210436;39;114959;-55
2021/07/16 02:48:52;;;;;;;;;;;;;;;22.11;56.67;102370.41;2208420;39;114853;-57
2021/07/16 02:50:25;;;;;;;;;;;;;;;22.12;56.70;102374.09;2208442;39;114824;-56
2021/07/16 02:51:57;;;;;;;;;;;;;;;22.10;56.83;102371.53;2205268;39;114856;-56
2021/07/16 02:53:29;;;;;;;;;;;;;;;22.10;56.54;102370.69;2210439;39;114287;-56
2021/07/16 02:55:03;;;;;;;;;;;;;;;22.09;56.66;102363.38;2210651;39;114915;-56
2021/07/16 02:56:34;;;;;;;;;;;;;;;22.11;56.35;102366.75;2208721;39;114815;-56
2021/07/16 02:58:07;;;;;;;;;;;;;;;22.09;56.58;102375.47;2210655;39;114798;-56
2021/07/16 02:59:39;;;;;;;;;;;;;;;22.11;56.63;102370.41;2208550;39;115609;-55
2021/07/16 03:01:11;;;;;;;;;;;;;;;22.08;56.46;102370.13;2210944;39;115475;-56
2021/07/16 03:02:44;;;;;;;;;;;;;;;22.07;56.56;102372.13;2216839;39;115625;-55
2021/07/16 03:04:17;;;;;;;;;;;;;;;22.08;56.51;102378.56;2214622;39;114592;-56
2021/07/16 03:05:48;;;;;;;;;;;;;;;22.08;56.65;102370.97;2209501;39;115533;-56
2021/07/16 03:07:20;;;;;;;;;;;;;;;22.07;56.56;102369.31;2200664;39;115557;-55
2021/07/16 03:08:52;;;;;;;;;;;;;;;22.05;56.68;102367.88;2210337;39;114562;-55
2021/07/16 03:10:26;;;;;;;;;;;;;;;22.05;56.38;102363.09;2210342;39;115562;-55
2021/07/16 03:11:58;;;;;;;;;;;;;;;22.05;56.36;102362.25;2210099;39;114604;-55
2021/07/16 03:13:31;;;;;;;;;;;;;;;22.05;56.63;102365.06;2210911;39;115980;-58
2021/07/16 03:15:06;;;;;;;;;;;;;;;22.04;56.18;102363.38;2211249;39;115668;-56
2021/07/16 03:16:38;;;;;;;;;;;;;;;22.04;56.40;102364.22;2211134;39;115440;-55
2021/07/16 03:18:10;;;;;;;;;;;;;;;22.05;56.43;102365.06;2211174;39;116068;-55
2021/07/16 03:19:42;;;;;;;;;;;;;;;22.05;56.49;102373.50;2211105;39;115451;-55
2021/07/16 03:21:14;;;;;;;;;;;;;;;22.05;56.39;102373.50;2213024;39;115628;-55
2021/07/16 03:22:46;;;;;;;;;;;;;;;22.06;56.35;102369.56;2211408;39;113917;-56
2021/07/16 03:24:19;;;;;;;;;;;;;;;22.05;56.33;102368.72;2210068;39;113802;-56
2021/07/16 03:25:50;;;;;;;;;;;;;;;22.08;56.44;102365.34;2210903;39;113781;-56
2021/07/16 03:27:22;;;;;;;;;;;;;;;22.05;56.72;102368.72;2211157;39;113638;-55
2021/07/16 03:28:54;;;;;;;;;;;;;;;22.05;56.75;102374.38;2210524;39;114086;-55
2021/07/16 03:30:29;;;;;;;;;;;;;;;22.05;56.54;102377.19;2211190;39;113840;-56
2021/07/16 03:32:01;;;;;;;;;;;;;;;22.04;56.51;102366.19;2211244;39;113700;-56
2021/07/16 03:33:33;;;;;;;;;;;;;;;22.06;56.44;102376.06;2211508;39;113808;-56
2021/07/16 03:35:06;;;;;;;;;;;;;;;22.04;56.57;102377.44;2209585;39;113971;-56
2021/07/16 03:36:42;;;;;;;;;;;;;;;22.06;56.45;102380.84;2202348;39;113702;-56
2021/07/16 03:38:14;;;;;;;;;;;;;;;22.03;56.55;102367.34;2208941;39;114022;-56
2021/07/16 03:39:46;;;;;;;;;;;;;;;22.03;56.56;102378.59;2210194;39;113715;-55
2021/07/16 03:41:18;;;;;;;;;;;;;;;22.04;56.21;102378.31;2207380;39;113790;-55
2021/07/16 03:42:50;;;;;;;;;;;;;;;22.03;56.65;102382.22;2213913;39;114708;-55
2021/07/16 03:44:22;;;;;;;;;;;;;;;22.03;56.68;102382.22;2210784;39;114976;-56
2021/07/16 03:46:11;;;;;;;;;;;;;;;22.08;56.37;102379.41;2209188;39;115347;-56
2021/07/16 03:47:44;;;;;;;;;;;;;;;22.04;56.35;102377.44;2204295;39;115026;-55
2021/07/16 03:49:15;;;;;;;;;;;;;;;22.01;56.35;102370.44;2208289;39;115560;-56
2021/07/16 03:50:47;;;;;;;;;;;;;;;22.03;56.40;102375.78;2211135;39;115189;-55
2021/07/16 03:52:21;;;;;;;;;;;;;;;22.02;56.43;102376.91;2211211;39;114808;-56
2021/07/16 03:53:53;;;;;;;;;;;;;;;22.00;56.46;102377.19;2210939;39;115217;-56
2021/07/16 03:55:25;;;;;;;;;;;;;;;22.01;56.38;102373.25;2210323;39;115224;-55
2021/07/16 03:56:57;;;;;;;;;;;;;;;21.99;56.51;102375.50;2207460;39;115057;-56
2021/07/16 03:58:29;;;;;;;;;;;;;;;22.00;56.47;102382.81;2205962;39;115147;-56
2021/07/16 04:00:05;;;;;;;;;;;;;;;21.99;56.47;102381.13;2210856;39;114818;-55
2021/07/16 04:01:37;;;;;;;;;;;;;;;22.01;56.63;102383.66;2209467;39;114609;-55
2021/07/16 04:03:09;;;;;;;;;;;;;;;21.99;56.68;102375.50;2214682;39;115033;-55
2021/07/16 04:04:41;;;;;;;;;;;;;;;21.98;56.56;102372.97;2215795;39;115102;-56
2021/07/16 04:06:14;;;;;;;;;;;;;;;22.00;56.77;102377.19;2204522;39;114536;-55
2021/07/16 04:07:46;;;;;;;;;;;;;;;21.99;56.48;102383.09;2214649;39;115879;-56
2021/07/16 04:10:53;;;;;;;;;;;;;;;21.97;56.74;102376.91;2210841;39;115088;-55
2021/07/16 04:12:25;;;;;;;;;;;;;;;21.97;56.50;102377.75;2211095;39;115905;-56
2021/07/16 04:13:57;;;;;;;;;;;;;;;21.97;56.83;102377.75;2209269;39;114727;-55
2021/07/16 04:15:29;;;;;;;;;;;;;;;21.96;56.28;102378.88;2210770;39;115531;-55
2021/07/16 04:17:01;;;;;;;;;;;;;;;21.96;56.32;102378.88;2209657;39;114728;-57
2021/07/16 04:18:33;;;;;;;;;;;;;;;21.97;56.56;102377.75;2210507;39;116007;-56
2021/07/16 04:20:06;;;;;;;;;;;;;;;21.97;56.53;102372.13;2210086;39;115817;-56
2021/07/16 04:21:37;;;;;;;;;;;;;;;21.96;56.42;102378.88;2201391;39;117153;-55
2021/07/16 04:23:09;;;;;;;;;;;;;;;21.96;56.71;102372.41;2209093;39;115884;-56
2021/07/16 04:24:42;;;;;;;;;;;;;;;21.96;56.41;102372.41;2199677;39;115429;-56
2021/07/16 04:26:14;;;;;;;;;;;;;;;21.98;56.23;102372.97;2207599;39;115544;-56
2021/07/16 04:27:47;;;;;;;;;;;;;;;21.94;56.27;102371.84;2212526;39;113638;-56
2021/07/16 04:29:19;;;;;;;;;;;;;;;21.94;56.18;102372.69;2212582;39;113804;-56
2021/07/16 04:30:51;;;;;;;;;;;;;;;21.93;56.41;102372.97;2210687;39;113815;-56
2021/07/16 04:32:23;;;;;;;;;;;;;;;21.95;56.13;102376.34;2210172;39;113996;-55
2021/07/16 04:33:55;;;;;;;;;;;;;;;21.93;56.43;102375.78;2211020;39;113644;-56
2021/07/16 04:35:27;;;;;;;;;;;;;;;21.93;56.31;102373.81;2209576;39;114103;-56
2021/07/16 04:37:00;;;;;;;;;;;;;;;21.93;56.12;102372.97;2210825;39;113794;-55
2021/07/16 04:38:35;;;;;;;;;;;;;;;21.93;56.26;102373.81;2209324;39;114444;-56
2021/07/16 04:40:08;;;;;;;;;;;;;;;21.93;56.03;102367.34;2205711;39;113778;-56
2021/07/16 04:41:39;;;;;;;;;;;;;;;21.94;56.14;102366.22;2210603;39;114271;-56
2021/07/16 04:43:12;;;;;;;;;;;;;;;21.93;55.96;102375.78;2210355;39;113795;-56
2021/07/16 04:44:44;;;;;;;;;;;;;;;21.92;56.14;102368.44;2210704;39;113903;-57
2021/07/16 04:46:16;;;;;;;;;;;;;;;21.92;56.26;102371.25;2209250;39;114045;-56
2021/07/16 04:47:48;;;;;;;;;;;;;;;21.91;56.14;102369.56;2210771;39;113727;-56
2021/07/16 04:49:20;;;;;;;;;;;;;;;21.89;56.26;102364.25;2211556;39;113704;-56
2021/07/16 04:50:52;;;;;;;;;;;;;;;21.90;56.46;102367.88;2210246;39;114791;-55
2021/07/16 04:52:24;;;;;;;;;;;;;;;21.89;56.26;102377.47;2210868;39;114845;-56
2021/07/16 04:53:57;;;;;;;;;;;;;;;21.90;56.23;102367.88;2211376;39;114807;-56
2021/07/16 04:55:28;;;;;;;;;;;;;;;21.91;56.40;102369.56;2210904;39;114014;-56
2021/07/16 04:57:00;;;;;;;;;;;;;;;21.88;56.36;102365.34;2210853;39;114961;-55
2021/07/16 04:58:32;;;;;;;;;;;;;;;21.87;56.38;102362.81;2211571;39;114874;-56
2021/07/16 05:00:05;;;;;;;;;;;;;;;21.89;56.58;102372.69;2211861;39;115208;-55
2021/07/16 05:01:37;;;;;;;;;;;;;;;21.90;56.68;102376.31;2211581;39;114985;-56
2021/07/16 05:03:09;;;;;;;;;;;;;;;21.88;56.41;102373.78;2211507;39;114240;-55
2021/07/16 05:04:41;;;;;;;;;;;;;;;21.87;56.31;102379.69;2211833;39;113876;-56
2021/07/16 05:06:14;;;;;;;;;;;;;;;21.87;56.39;102374.91;2207252;39;113827;-55
2021/07/16 05:07:45;;;;;;;;;;;;;;;21.86;56.33;102383.63;2211740;39;114847;-55
2021/07/16 05:09:18;;;;;;;;;;;;;;;21.89;56.65;102380.28;2210803;39;114071;-56
2021/07/16 05:10:49;;;;;;;;;;;;;;;21.88;56.62;102385.06;2214356;39;114826;-55
2021/07/16 05:12:21;;;;;;;;;;;;;;;21.88;56.53;102384.22;2217310;39;115517;-55
2021/07/16 05:13:53;;;;;;;;;;;;;;;21.86;56.68;102384.47;2211014;39;115492;-56
2021/07/16 05:15:25;;;;;;;;;;;;;;;21.87;56.47;102383.34;2211719;39;114510;-56
2021/07/16 05:16:57;;;;;;;;;;;;;;;21.88;56.50;102387.03;2210981;39;115725;-56
2021/07/16 05:18:29;;;;;;;;;;;;;;;21.88;56.67;102395.47;2211690;39;115922;-55
2021/07/16 05:20:03;;;;;;;;;;;;;;;21.87;56.51;102389.00;2211540;39;114868;-56
2021/07/16 05:21:34;;;;;;;;;;;;;;;21.86;56.75;102390.09;2210494;39;114583;-55
2021/07/16 05:23:06;;;;;;;;;;;;;;;21.87;56.46;102393.78;2205490;39;115574;-55
2021/07/16 05:24:38;;;;;;;;;;;;;;;21.88;56.49;102401.09;2211274;39;115497;-55
2021/07/16 05:26:11;;;;;;;;;;;;;;;21.87;56.48;102397.44;2207535;39;115999;-55
2021/07/16 05:27:42;;;;;;;;;;;;;;;21.86;56.36;102408.94;2208601;39;115581;-56
2021/07/16 05:29:14;;;;;;;;;;;;;;;21.87;56.59;102400.25;2211519;39;115514;-56
2021/07/16 05:30:47;;;;;;;;;;;;;;;21.86;56.48;102398.56;2211400;39;114728;-56
2021/07/16 05:32:19;;;;;;;;;;;;;;;21.85;56.73;102398.84;2213507;39;115596;-57
2021/07/16 05:33:51;;;;;;;;;;;;;;;21.86;56.67;102403.31;2211730;39;113762;-56
2021/07/16 05:35:23;;;;;;;;;;;;;;;21.85;56.88;102401.66;2209468;39;113938;-57
2021/07/16 05:36:54;;;;;;;;;;;;;;;21.86;56.47;102398.56;2211437;39;113748;-55
2021/07/16 05:38:26;;;;;;;;;;;;;;;21.85;56.18;102402.47;2211743;39;113729;-56
2021/07/16 05:39:58;;;;;;;;;;;;;;;21.83;56.54;102399.13;2211664;39;113713;-56
2021/07/16 05:41:31;;;;;;;;;;;;;;;21.84;56.43;102399.97;2217199;39;114422;-55
2021/07/16 05:43:04;;;;;;;;;;;;;;;21.84;56.46;102405.59;2207704;39;113989;-55
2021/07/16 05:44:36;;;;;;;;;;;;;;;21.82;56.43;102403.06;2208596;39;114003;-56
2021/07/16 05:46:08;;;;;;;;;;;;;;;21.83;56.50;102407.56;2211302;39;113954;-56
2021/07/16 05:47:40;;;;;;;;;;;;;;;21.83;56.59;102406.72;2211170;39;113866;-56
2021/07/16 05:49:12;;;;;;;;;;;;;;;21.84;56.49;102398.00;2210525;39;113957;-55
2021/07/16 05:50:46;;;;;;;;;;;;;;;21.84;56.64;102400.81;2210256;39;113885;-56
2021/07/16 05:52:18;;;;;;;;;;;;;;;21.85;56.65;102401.66;2210311;39;113694;-56
2021/07/16 05:53:50;;;;;;;;;;;;;;;21.84;56.80;102409.25;2216044;39;113787;-56
2021/07/16 05:55:22;;;;;;;;;;;;;;;21.83;56.81;102413.19;2211019;39;113838;-56
2021/07/16 05:56:54;;;;;;;;;;;;;;;21.83;56.63;102410.38;2202375;39;114919;-56
2021/07/16 05:58:26;;;;;;;;;;;;;;;21.84;56.66;102411.22;2208539;39;114229;-55
2021/07/16 05:59:58;;;;;;;;;;;;;;;21.84;56.80;102419.66;2211381;39;114794;-55
2021/07/16 06:01:30;;;;;;;;;;;;;;;21.82;56.93;102416.28;2211485;39;114064;-55
2021/07/16 06:03:03;;;;;;;;;;;;;;;21.82;56.59;102416.28;2210507;39;114820;-55
2021/07/16 06:04:35;;;;;;;;;;;;;;;21.84;57.09;102422.47;2208721;39;115004;-56
2021/07/16 06:06:07;;;;;;;;;;;;;;;21.83;56.90;102424.44;2210688;39;114280;-56
2021/07/16 06:07:40;;;;;;;;;;;;;;;21.81;56.98;102423.88;2211152;39;114946;-55
2021/07/16 06:09:11;;;;;;;;;;;;;;;21.82;56.87;102421.91;2211873;39;114837;-56
2021/07/16 06:10:44;;;;;;;;;;;;;;;21.82;56.76;102421.91;2211247;39;114060;-56
2021/07/16 06:12:16;;;;;;;;;;;;;;;21.82;56.66;102417.13;2211275;39;114976;-55
2021/07/16 06:13:48;;;;;;;;;;;;;;;21.83;57.10;102420.78;2211096;39;114801;-56
2021/07/16 06:15:20;;;;;;;;;;;;;;;21.82;56.91;102419.09;2213683;39;115338;-56
2021/07/16 06:16:53;;;;;;;;;;;;;;;21.81;57.24;102420.22;2210480;39;116836;-56
2021/07/16 06:18:25;;;;;;;;;;;;;;;21.82;57.03;102422.75;2215112;39;115694;-56
2021/07/16 06:19:58;;;;;;;;;;;;;;;21.83;57.32;102426.41;2213331;39;115807;-56
2021/07/16 06:21:30;;;;;;;;;;;;;;;21.84;57.47;102425.28;2211092;39;115761;-56
2021/07/16 06:23:02;;;;;;;;;;;;;;;21.84;57.44;102423.34;2210970;39;115583;-56
2021/07/16 06:24:34;;;;;;;;;;;;;;;21.84;57.24;102425.28;2210907;39;115958;-56
2021/07/16 06:26:06;;;;;;;;;;;;;;;21.85;57.31;102429.81;2206932;39;114960;-56
2021/07/16 06:27:39;;;;;;;;;;;;;;;21.86;57.69;102425.84;2208507;39;115427;-55
2021/07/16 06:29:11;;;;;;;;;;;;;;;21.87;57.17;102434.00;2211497;39;116458;-55
2021/07/16 06:30:44;;;;;;;;;;;;;;;21.86;57.39;102421.06;2211545;39;115655;-56
2021/07/16 06:32:16;;;;;;;;;;;;;;;21.88;57.37;102426.41;2211333;39;115908;-55
2021/07/16 06:33:48;;;;;;;;;;;;;;;21.87;57.49;102431.19;2211436;39;115085;-56
2021/07/16 06:35:20;;;;;;;;;;;;;;;21.87;57.49;102428.38;2211510;39;115517;-55
2021/07/16 06:36:52;;;;;;;;;;;;;;;21.88;57.56;102423.59;2210538;39;114643;-56
2021/07/16 06:38:24;;;;;;;;;;;;;;;21.89;57.47;102428.97;2213030;39;115555;-55
2021/07/16 06:39:57;;;;;;;;;;;;;;;21.89;57.61;102428.13;2206549;39;113843;-56
2021/07/16 06:41:29;;;;;;;;;;;;;;;21.89;57.42;102423.34;2210051;39;114020;-56
2021/07/16 06:43:08;;;;;;;;;;;;;;;21.92;57.44;102425.56;2213506;39;113948;-56
2021/07/16 06:44:40;;;;;;;;;;;;;;;21.91;57.53;102423.88;2208388;39;113619;-56
2021/07/16 06:46:13;;;;;;;;;;;;;;;21.92;57.50;102435.97;2208522;39;113844;-56
2021/07/16 06:47:45;;;;;;;;;;;;;;;21.97;57.52;102430.38;2210470;39;113919;-56
2021/07/16 06:49:17;;;;;;;;;;;;;;;21.90;56.53;102432.59;2211313;39;113947;-55
2021/07/16 06:50:49;;;;;;;;;;;;;;;21.83;55.10;102434.84;2203105;39;114247;-56
2021/07/16 06:52:21;;;;;;;;;;;;;;;21.79;55.41;102437.38;2205377;39;113707;-56
2021/07/16 06:53:53;;;;;;;;;;;;;;;21.81;55.37;102431.47;2211558;39;113660;-55
2021/07/16 06:55:25;;;;;;;;;;;;;;;21.80;56.06;102432.63;2210474;39;113716;-55
2021/07/16 06:56:57;;;;;;;;;;;;;;;21.78;55.85;102434.84;2208488;39;113766;-56
2021/07/16 06:58:30;;;;;;;;;;;;;;;21.79;55.40;102430.91;2211003;39;114672;-55
2021/07/16 07:00:03;;;;;;;;;;;;;;;21.76;55.20;102426.69;2213892;39;114534;-56
2021/07/16 07:01:34;;;;;;;;;;;;;;;21.78;55.40;102427.25;2211492;39;115547;-55
2021/07/16 07:03:07;;;;;;;;;;;;;;;21.76;55.13;102434.31;2211214;39;114968;-55
2021/07/16 07:04:58;;;;;;;;;;;;;;;21.74;55.24;102431.75;2210588;39;115791;-56
2021/07/16 07:06:31;;;;;;;;;;;;;;;21.74;54.78;102435.41;2211117;39;114862;-55
2021/07/16 07:08:06;;;;;;;;;;;;;;;21.73;54.77;102439.34;2210935;39;113939;-55
2021/07/16 07:09:38;;;;;;;;;;;;;;;21.69;54.78;102432.59;2211578;39;114795;-55
2021/07/16 07:11:10;;;;;;;;;;;;;;;21.74;55.13;102432.59;2210186;39;114957;-56
2021/07/16 07:12:44;;;;;;;;;;;;;;;21.76;55.36;102431.50;2209605;39;115278;-55
2021/07/16 07:14:16;;;;;;;;;;;;;;;21.74;55.79;102426.97;2208493;39;114787;-56
2021/07/16 07:15:48;;;;;;;;;;;;;;;21.77;55.22;102427.53;2211377;39;114839;-56
2021/07/16 07:17:20;;;;;;;;;;;;;;;21.77;55.56;102431.19;2210095;39;114000;-56
2021/07/16 07:18:52;;;;;;;;;;;;;;;21.78;55.66;102429.22;2210451;39;113909;-55
2021/07/16 07:20:24;;;;;;;;;;;;;;;21.80;56.26;102430.66;2211041;39;113832;-56
2021/07/16 07:21:56;;;;;;;;;;;;;;;21.95;57.47;102432.63;2214266;39;114822;-55
2021/07/16 07:23:28;;;;;;;;;;;;;;;21.94;57.93;102434.59;2209793;39;115600;-57
2021/07/16 07:25:00;;;;;;;;;;;;;;;21.90;57.61;102435.41;2204704;39;114790;-56
2021/07/16 07:26:32;;;;;;;;;;;;;;;21.86;56.91;102426.69;2210695;39;115865;-56
2021/07/16 07:28:05;;;;;;;;;;;;;;;21.84;56.98;102433.72;2210973;39;115601;-56
2021/07/16 07:29:37;;;;;;;;;;;;;;;21.86;57.15;102439.91;2211379;39;115507;-56
2021/07/16 07:31:09;;;;;;;;;;;;;;;21.85;57.43;102443.88;2211054;39;114925;-56
2021/07/16 07:32:40;;;;;;;;;;;;;;;21.83;57.73;102444.16;2210839;39;115613;-56
2021/07/16 07:34:13;;;;;;;;;;;;;;;21.86;57.75;102442.72;2210579;39;117364;-56
2021/07/16 07:35:44;;;;;;;;;;;;;;;21.85;57.94;102438.25;2210825;39;115795;-56
2021/07/16 07:37:16;;;;;;;;;;;;;;;21.84;58.02;102445.84;2216309;39;115508;-56
2021/07/16 07:38:48;;;;;;;;;;;;;;;21.85;58.29;102449.50;2208002;39;115645;-56
2021/07/16 07:40:20;;;;;;;;;;;;;;;21.83;58.61;102455.41;2210980;39;115423;-56
2021/07/16 07:41:52;;;;;;;;;;;;;;;21.84;58.34;102459.06;2215401;39;116277;-56
2021/07/16 07:43:24;;;;;;;;;;;;;;;21.83;58.15;102455.41;2209296;39;115591;-56
2021/07/16 07:44:56;;;;;;;;;;;;;;;21.86;58.37;102459.59;2209336;39;114000;-56
2021/07/16 07:46:28;;;;;;;;;;;;;;;21.82;57.98;102461.28;2209199;39;113658;-56
2021/07/16 07:48:00;;;;;;;;;;;;;;;21.83;57.93;102452.59;2210419;39;113967;-56
2021/07/16 07:49:32;;;;;;;;;;;;;;;21.83;58.01;102446.09;2208288;39;113668;-56
2021/07/16 07:51:04;;;;;;;;;;;;;;;21.82;58.17;102450.88;2210685;39;113789;-56